sensor_id;sensor_type;location;lat;lon;timestamp;P1;durP1;ratioP1;P2;durP2;ratioP2
41261;SDS011;29629;52.532;13.352;2023-04-03T00:00:30;90.00;;;60.08;;
41261;SDS011;29629;52.532;13.352;2023-04-03T00:02:57;92.70;;;61.15;;
41261;SDS011;29629;52.532;13.352;2023-04-03T00:05:25;94.38;;;61.45;;
41261;SDS011;29629;52.532;13.352;2023-04-03T00:07:52;86.80;;;58.83;;
41261;SDS011;29629;52.532;13.352;2023-04-03T00:10:19;87.93;;;59.45;;
41261;SDS011;29629;52.532;13.352;2023-04-03T00:12:46;91.40;;;59.97;;
41261;SDS011;29629;52.532;13.352;2023-04-03T00:15:13;89.22;;;59.90;;
41261;SDS011;29629;52.532;13.352;2023-04-03T00:17:40;92.97;;;60.85;;
41261;SDS011;29629;52.532;13.352;2023-04-03T00:20:08;88.55;;;59.22;;
41261;SDS011;29629;52.532;13.352;2023-04-03T00:22:36;90.72;;;59.97;;
41261;SDS011;29629;52.532;13.352;2023-04-03T00:25:03;99.90;;;59.83;;
41261;SDS011;29629;52.532;13.352;2023-04-03T00:27:31;91.82;;;60.55;;
41261;SDS011;29629;52.532;13.352;2023-04-03T00:29:58;94.85;;;61.40;;
41261;SDS011;29629;52.532;13.352;2023-04-03T00:32:25;90.80;;;59.95;;
41261;SDS011;29629;52.532;13.352;2023-04-03T00:34:51;89.10;;;59.72;;
41261;SDS011;29629;52.532;13.352;2023-04-03T00:37:18;92.28;;;60.63;;
41261;SDS011;29629;52.532;13.352;2023-04-03T00:39:47;88.63;;;60.22;;
41261;SDS011;29629;52.532;13.352;2023-04-03T00:42:14;92.03;;;60.58;;
41261;SDS011;29629;52.532;13.352;2023-04-03T00:47:53;92.07;;;60.70;;
41261;SDS011;29629;52.532;13.352;2023-04-03T00:50:21;92.43;;;59.53;;
41261;SDS011;29629;52.532;13.352;2023-04-03T00:52:48;92.43;;;60.95;;
41261;SDS011;29629;52.532;13.352;2023-04-03T00:55:17;89.78;;;59.58;;
41261;SDS011;29629;52.532;13.352;2023-04-03T00:57:44;89.50;;;60.47;;
41261;SDS011;29629;52.532;13.352;2023-04-03T01:00:13;96.07;;;61.95;;
41261;SDS011;29629;52.532;13.352;2023-04-03T01:02:44;90.03;;;59.50;;
41261;SDS011;29629;52.532;13.352;2023-04-03T01:05:11;90.20;;;59.92;;
41261;SDS011;29629;52.532;13.352;2023-04-03T01:07:40;92.28;;;60.83;;
41261;SDS011;29629;52.532;13.352;2023-04-03T01:10:09;92.97;;;61.05;;
41261;SDS011;29629;52.532;13.352;2023-04-03T01:12:40;86.53;;;58.92;;
41261;SDS011;29629;52.532;13.352;2023-04-03T01:15:11;84.32;;;58.53;;
41261;SDS011;29629;52.532;13.352;2023-04-03T01:17:40;90.63;;;60.28;;
41261;SDS011;29629;52.532;13.352;2023-04-03T01:23:12;88.85;;;60.00;;
41261;SDS011;29629;52.532;13.352;2023-04-03T01:25:51;88.63;;;59.40;;
41261;SDS011;29629;52.532;13.352;2023-04-03T01:28:22;91.53;;;60.55;;
41261;SDS011;29629;52.532;13.352;2023-04-03T01:30:53;95.25;;;59.65;;
41261;SDS011;29629;52.532;13.352;2023-04-03T01:33:26;91.25;;;60.38;;
41261;SDS011;29629;52.532;13.352;2023-04-03T01:35:53;92.40;;;60.90;;
41261;SDS011;29629;52.532;13.352;2023-04-03T01:38:20;90.57;;;60.53;;
41261;SDS011;29629;52.532;13.352;2023-04-03T01:40:47;86.45;;;58.97;;
41261;SDS011;29629;52.532;13.352;2023-04-03T01:43:14;87.10;;;59.08;;
41261;SDS011;29629;52.532;13.352;2023-04-03T01:45:41;95.25;;;60.00;;
41261;SDS011;29629;52.532;13.352;2023-04-03T01:48:08;89.20;;;59.88;;
41261;SDS011;29629;52.532;13.352;2023-04-03T01:50:36;94.22;;;61.83;;
41261;SDS011;29629;52.532;13.352;2023-04-03T01:53:03;89.22;;;59.80;;
41261;SDS011;29629;52.532;13.352;2023-04-03T01:55:30;89.85;;;59.72;;
41261;SDS011;29629;52.532;13.352;2023-04-03T01:57:57;91.72;;;60.72;;
41261;SDS011;29629;52.532;13.352;2023-04-03T02:00:24;101.78;;;63.47;;
41261;SDS011;29629;52.532;13.352;2023-04-03T02:02:51;86.75;;;59.08;;
41261;SDS011;29629;52.532;13.352;2023-04-03T02:05:18;89.03;;;60.10;;
41261;SDS011;29629;52.532;13.352;2023-04-03T02:07:47;92.35;;;58.97;;
41261;SDS011;29629;52.532;13.352;2023-04-03T02:10:13;89.88;;;60.00;;
41261;SDS011;29629;52.532;13.352;2023-04-03T02:12:40;84.90;;;58.72;;
41261;SDS011;29629;52.532;13.352;2023-04-03T02:15:08;91.20;;;60.22;;
41261;SDS011;29629;52.532;13.352;2023-04-03T02:17:35;88.65;;;59.78;;
41261;SDS011;29629;52.532;13.352;2023-04-03T02:20:02;86.97;;;59.53;;
41261;SDS011;29629;52.532;13.352;2023-04-03T02:22:29;88.88;;;59.78;;
41261;SDS011;29629;52.532;13.352;2023-04-03T02:24:58;87.47;;;59.38;;
41261;SDS011;29629;52.532;13.352;2023-04-03T02:27:25;85.60;;;58.85;;
41261;SDS011;29629;52.532;13.352;2023-04-03T02:29:53;89.63;;;60.20;;
41261;SDS011;29629;52.532;13.352;2023-04-03T02:32:20;87.20;;;59.20;;
41261;SDS011;29629;52.532;13.352;2023-04-03T02:34:47;88.80;;;59.83;;
41261;SDS011;29629;52.532;13.352;2023-04-03T02:37:14;89.05;;;60.15;;
41261;SDS011;29629;52.532;13.352;2023-04-03T02:39:41;87.82;;;60.00;;
41261;SDS011;29629;52.532;13.352;2023-04-03T02:42:09;88.20;;;59.67;;
41261;SDS011;29629;52.532;13.352;2023-04-03T02:44:36;86.80;;;58.85;;
41261;SDS011;29629;52.532;13.352;2023-04-03T02:47:04;88.93;;;59.88;;
41261;SDS011;29629;52.532;13.352;2023-04-03T02:49:31;89.60;;;59.78;;
41261;SDS011;29629;52.532;13.352;2023-04-03T02:51:58;87.38;;;59.22;;
41261;SDS011;29629;52.532;13.352;2023-04-03T02:54:24;86.78;;;59.47;;
41261;SDS011;29629;52.532;13.352;2023-04-03T02:56:53;90.10;;;60.45;;
41261;SDS011;29629;52.532;13.352;2023-04-03T02:59:22;88.22;;;59.33;;
41261;SDS011;29629;52.532;13.352;2023-04-03T03:01:49;90.18;;;60.13;;
41261;SDS011;29629;52.532;13.352;2023-04-03T03:04:16;95.43;;;61.60;;
41261;SDS011;29629;52.532;13.352;2023-04-03T03:06:43;87.30;;;59.10;;
41261;SDS011;29629;52.532;13.352;2023-04-03T03:09:09;90.68;;;58.33;;
41261;SDS011;29629;52.532;13.352;2023-04-03T03:11:38;80.45;;;57.50;;
41261;SDS011;29629;52.532;13.352;2023-04-03T03:14:05;88.97;;;59.90;;
41261;SDS011;29629;52.532;13.352;2023-04-03T03:16:33;79.55;;;57.13;;
41261;SDS011;29629;52.532;13.352;2023-04-03T03:19:00;97.30;;;62.17;;
41261;SDS011;29629;52.532;13.352;2023-04-03T03:21:27;88.88;;;60.40;;
41261;SDS011;29629;52.532;13.352;2023-04-03T03:23:54;89.20;;;59.85;;
41261;SDS011;29629;52.532;13.352;2023-04-03T03:26:21;90.88;;;58.75;;
41261;SDS011;29629;52.532;13.352;2023-04-03T03:28:48;87.53;;;59.58;;
41261;SDS011;29629;52.532;13.352;2023-04-03T03:31:15;87.60;;;58.97;;
41261;SDS011;29629;52.532;13.352;2023-04-03T03:33:43;90.10;;;59.80;;
41261;SDS011;29629;52.532;13.352;2023-04-03T03:36:10;86.75;;;59.20;;
41261;SDS011;29629;52.532;13.352;2023-04-03T03:38:37;87.60;;;59.53;;
41261;SDS011;29629;52.532;13.352;2023-04-03T03:41:04;91.22;;;59.28;;
41261;SDS011;29629;52.532;13.352;2023-04-03T03:43:31;89.88;;;59.70;;
41261;SDS011;29629;52.532;13.352;2023-04-03T03:45:58;81.78;;;57.58;;
41261;SDS011;29629;52.532;13.352;2023-04-03T03:48:25;90.65;;;60.17;;
41261;SDS011;29629;52.532;13.352;2023-04-03T03:50:53;85.38;;;58.55;;
41261;SDS011;29629;52.532;13.352;2023-04-03T03:53:20;88.55;;;59.65;;
41261;SDS011;29629;52.532;13.352;2023-04-03T03:55:47;88.55;;;60.08;;
41261;SDS011;29629;52.532;13.352;2023-04-03T03:58:14;93.88;;;61.33;;
41261;SDS011;29629;52.532;13.352;2023-04-03T04:00:41;85.53;;;58.88;;
41261;SDS011;29629;52.532;13.352;2023-04-03T04:03:08;89.43;;;59.90;;
41261;SDS011;29629;52.532;13.352;2023-04-03T04:05:35;89.20;;;59.92;;
41261;SDS011;29629;52.532;13.352;2023-04-03T04:08:03;87.22;;;59.03;;
41261;SDS011;29629;52.532;13.352;2023-04-03T04:10:30;85.88;;;58.25;;
41261;SDS011;29629;52.532;13.352;2023-04-03T04:12:57;95.43;;;60.63;;
41261;SDS011;29629;52.532;13.352;2023-04-03T04:15:24;92.05;;;60.53;;
41261;SDS011;29629;52.532;13.352;2023-04-03T04:17:52;87.90;;;59.25;;
41261;SDS011;29629;52.532;13.352;2023-04-03T04:20:19;92.68;;;60.53;;
41261;SDS011;29629;52.532;13.352;2023-04-03T04:22:45;82.28;;;57.92;;
41261;SDS011;29629;52.532;13.352;2023-04-03T04:25:14;117.63;;;106.47;;
41261;SDS011;29629;52.532;13.352;2023-04-03T04:27:41;87.00;;;59.33;;
41261;SDS011;29629;52.532;13.352;2023-04-03T04:30:08;94.07;;;61.42;;
41261;SDS011;29629;52.532;13.352;2023-04-03T04:32:36;87.05;;;59.08;;
41261;SDS011;29629;52.532;13.352;2023-04-03T04:35:04;97.28;;;62.33;;
41261;SDS011;29629;52.532;13.352;2023-04-03T04:37:31;91.22;;;60.47;;
41261;SDS011;29629;52.532;13.352;2023-04-03T04:39:58;86.22;;;58.75;;
41261;SDS011;29629;52.532;13.352;2023-04-03T04:42:26;87.03;;;58.95;;
41261;SDS011;29629;52.532;13.352;2023-04-03T04:44:53;85.53;;;58.47;;
41261;SDS011;29629;52.532;13.352;2023-04-03T04:47:20;90.43;;;59.95;;
41261;SDS011;29629;52.532;13.352;2023-04-03T04:49:47;89.20;;;59.88;;
41261;SDS011;29629;52.532;13.352;2023-04-03T04:52:14;85.45;;;58.88;;
41261;SDS011;29629;52.532;13.352;2023-04-03T04:54:41;84.82;;;58.42;;
41261;SDS011;29629;52.532;13.352;2023-04-03T04:57:08;86.53;;;58.72;;
41261;SDS011;29629;52.532;13.352;2023-04-03T04:59:37;87.57;;;59.00;;
41261;SDS011;29629;52.532;13.352;2023-04-03T05:02:04;88.60;;;60.75;;
41261;SDS011;29629;52.532;13.352;2023-04-03T05:04:31;85.47;;;58.28;;
41261;SDS011;29629;52.532;13.352;2023-04-03T05:06:58;86.47;;;59.08;;
41261;SDS011;29629;52.532;13.352;2023-04-03T05:09:25;88.68;;;61.17;;
41261;SDS011;29629;52.532;13.352;2023-04-03T05:11:52;85.63;;;59.55;;
41261;SDS011;29629;52.532;13.352;2023-04-03T05:14:19;86.60;;;59.13;;
41261;SDS011;29629;52.532;13.352;2023-04-03T05:16:48;93.65;;;61.03;;
41261;SDS011;29629;52.532;13.352;2023-04-03T05:19:17;90.63;;;61.22;;
41261;SDS011;29629;52.532;13.352;2023-04-03T05:21:45;85.95;;;58.65;;
41261;SDS011;29629;52.532;13.352;2023-04-03T05:24:12;93.30;;;61.03;;
41261;SDS011;29629;52.532;13.352;2023-04-03T05:26:38;89.10;;;59.85;;
41261;SDS011;29629;52.532;13.352;2023-04-03T05:29:05;99.20;;;63.13;;
41261;SDS011;29629;52.532;13.352;2023-04-03T05:31:32;99.47;;;63.63;;
41261;SDS011;29629;52.532;13.352;2023-04-03T05:34:01;97.93;;;62.63;;
41261;SDS011;29629;52.532;13.352;2023-04-03T05:36:28;90.13;;;59.97;;
41261;SDS011;29629;52.532;13.352;2023-04-03T05:38:55;102.63;;;64.05;;
41261;SDS011;29629;52.532;13.352;2023-04-03T05:41:22;89.03;;;59.47;;
41261;SDS011;29629;52.532;13.352;2023-04-03T05:43:49;92.90;;;61.83;;
41261;SDS011;29629;52.532;13.352;2023-04-03T05:46:17;92.97;;;60.95;;
41261;SDS011;29629;52.532;13.352;2023-04-03T05:48:45;93.22;;;61.33;;
41261;SDS011;29629;52.532;13.352;2023-04-03T05:51:15;106.00;;;61.55;;
41261;SDS011;29629;52.532;13.352;2023-04-03T05:53:44;90.68;;;60.80;;
41261;SDS011;29629;52.532;13.352;2023-04-03T05:56:13;92.50;;;61.45;;
41261;SDS011;29629;52.532;13.352;2023-04-03T05:58:40;92.57;;;62.85;;
41261;SDS011;29629;52.532;13.352;2023-04-03T06:01:08;90.45;;;61.00;;
41261;SDS011;29629;52.532;13.352;2023-04-03T06:03:35;86.78;;;60.08;;
41261;SDS011;29629;52.532;13.352;2023-04-03T06:06:02;93.72;;;61.65;;
41261;SDS011;29629;52.532;13.352;2023-04-03T06:08:32;91.18;;;61.13;;
41261;SDS011;29629;52.532;13.352;2023-04-03T06:11:00;90.72;;;61.05;;
41261;SDS011;29629;52.532;13.352;2023-04-03T06:13:28;94.25;;;61.80;;
41261;SDS011;29629;52.532;13.352;2023-04-03T06:15:55;96.40;;;62.22;;
41261;SDS011;29629;52.532;13.352;2023-04-03T06:18:22;95.38;;;61.63;;
41261;SDS011;29629;52.532;13.352;2023-04-03T06:20:49;89.88;;;60.60;;
41261;SDS011;29629;52.532;13.352;2023-04-03T06:23:16;93.97;;;61.58;;
41261;SDS011;29629;52.532;13.352;2023-04-03T06:25:45;93.80;;;61.88;;
41261;SDS011;29629;52.532;13.352;2023-04-03T06:28:12;97.30;;;62.75;;
41261;SDS011;29629;52.532;13.352;2023-04-03T06:30:39;99.10;;;64.07;;
41261;SDS011;29629;52.532;13.352;2023-04-03T06:33:06;94.78;;;62.70;;
41261;SDS011;29629;52.532;13.352;2023-04-03T06:35:33;90.93;;;61.33;;
41261;SDS011;29629;52.532;13.352;2023-04-03T06:38:00;90.82;;;61.97;;
41261;SDS011;29629;52.532;13.352;2023-04-03T06:40:29;97.10;;;63.33;;
41261;SDS011;29629;52.532;13.352;2023-04-03T06:42:57;97.25;;;63.33;;
41261;SDS011;29629;52.532;13.352;2023-04-03T06:45:24;92.00;;;61.53;;
41261;SDS011;29629;52.532;13.352;2023-04-03T06:47:52;93.70;;;61.95;;
41261;SDS011;29629;52.532;13.352;2023-04-03T06:50:19;95.00;;;62.88;;
41261;SDS011;29629;52.532;13.352;2023-04-03T06:52:46;92.05;;;61.53;;
41261;SDS011;29629;52.532;13.352;2023-04-03T06:55:13;94.53;;;61.88;;
41261;SDS011;29629;52.532;13.352;2023-04-03T06:57:40;95.45;;;63.63;;
41261;SDS011;29629;52.532;13.352;2023-04-03T07:00:10;92.75;;;62.08;;
41261;SDS011;29629;52.532;13.352;2023-04-03T07:02:38;93.63;;;62.28;;
41261;SDS011;29629;52.532;13.352;2023-04-03T07:05:05;95.25;;;63.28;;
41261;SDS011;29629;52.532;13.352;2023-04-03T07:07:33;101.30;;;65.35;;
41261;SDS011;29629;52.532;13.352;2023-04-03T07:10:01;102.53;;;62.63;;
41261;SDS011;29629;52.532;13.352;2023-04-03T07:12:28;98.55;;;64.20;;
41261;SDS011;29629;52.532;13.352;2023-04-03T07:14:54;102.30;;;64.85;;
41261;SDS011;29629;52.532;13.352;2023-04-03T07:17:23;105.35;;;66.10;;
41261;SDS011;29629;52.532;13.352;2023-04-03T07:19:50;95.18;;;62.97;;
41261;SDS011;29629;52.532;13.352;2023-04-03T07:22:17;101.10;;;64.85;;
41261;SDS011;29629;52.532;13.352;2023-04-03T07:24:44;94.57;;;64.85;;
41261;SDS011;29629;52.532;13.352;2023-04-03T07:27:12;95.95;;;63.58;;
41261;SDS011;29629;52.532;13.352;2023-04-03T07:29:39;101.68;;;66.38;;
41261;SDS011;29629;52.532;13.352;2023-04-03T07:32:06;95.15;;;63.80;;
41261;SDS011;29629;52.532;13.352;2023-04-03T07:34:34;102.63;;;65.38;;
41261;SDS011;29629;52.532;13.352;2023-04-03T07:37:01;96.32;;;64.03;;
41261;SDS011;29629;52.532;13.352;2023-04-03T07:39:29;100.55;;;65.05;;
41261;SDS011;29629;52.532;13.352;2023-04-03T07:41:56;88.15;;;61.50;;
41261;SDS011;29629;52.532;13.352;2023-04-03T07:44:23;100.78;;;64.88;;
41261;SDS011;29629;52.532;13.352;2023-04-03T07:46:50;99.28;;;65.47;;
41261;SDS011;29629;52.532;13.352;2023-04-03T07:49:17;102.60;;;65.28;;
41261;SDS011;29629;52.532;13.352;2023-04-03T07:51:45;97.50;;;63.97;;
41261;SDS011;29629;52.532;13.352;2023-04-03T07:54:13;96.22;;;63.95;;
41261;SDS011;29629;52.532;13.352;2023-04-03T07:56:40;103.38;;;64.90;;
41261;SDS011;29629;52.532;13.352;2023-04-03T07:59:09;97.13;;;64.03;;
41261;SDS011;29629;52.532;13.352;2023-04-03T08:01:36;96.70;;;63.38;;
41261;SDS011;29629;52.532;13.352;2023-04-03T08:04:03;97.00;;;64.13;;
41261;SDS011;29629;52.532;13.352;2023-04-03T08:06:31;104.05;;;62.63;;
41261;SDS011;29629;52.532;13.352;2023-04-03T08:09:02;103.78;;;66.15;;
41261;SDS011;29629;52.532;13.352;2023-04-03T08:11:29;96.88;;;64.38;;
41261;SDS011;29629;52.532;13.352;2023-04-03T08:13:57;97.13;;;63.95;;
41261;SDS011;29629;52.532;13.352;2023-04-03T08:16:24;98.22;;;64.88;;
41261;SDS011;29629;52.532;13.352;2023-04-03T08:18:52;105.65;;;66.72;;
41261;SDS011;29629;52.532;13.352;2023-04-03T08:21:20;93.90;;;63.13;;
41261;SDS011;29629;52.532;13.352;2023-04-03T08:23:48;89.35;;;61.88;;
41261;SDS011;29629;52.532;13.352;2023-04-03T08:26:18;98.57;;;64.55;;
41261;SDS011;29629;52.532;13.352;2023-04-03T08:28:47;92.22;;;62.95;;
41261;SDS011;29629;52.532;13.352;2023-04-03T08:31:15;97.35;;;66.30;;
41261;SDS011;29629;52.532;13.352;2023-04-03T08:33:43;94.95;;;64.00;;
41261;SDS011;29629;52.532;13.352;2023-04-03T08:36:17;98.97;;;64.82;;
41261;SDS011;29629;52.532;13.352;2023-04-03T08:38:45;98.43;;;65.60;;
41261;SDS011;29629;52.532;13.352;2023-04-03T08:41:14;100.95;;;66.38;;
41261;SDS011;29629;52.532;13.352;2023-04-03T08:43:55;95.82;;;64.20;;
41261;SDS011;29629;52.532;13.352;2023-04-03T08:46:33;95.22;;;64.13;;
41261;SDS011;29629;52.532;13.352;2023-04-03T08:49:10;103.03;;;66.82;;
41261;SDS011;29629;52.532;13.352;2023-04-03T08:51:41;97.10;;;64.65;;
41261;SDS011;29629;52.532;13.352;2023-04-03T08:54:15;91.93;;;63.63;;
41261;SDS011;29629;52.532;13.352;2023-04-03T08:56:51;94.20;;;64.25;;
41261;SDS011;29629;52.532;13.352;2023-04-03T08:59:22;93.55;;;64.38;;
41261;SDS011;29629;52.532;13.352;2023-04-03T09:01:53;92.03;;;64.05;;
41261;SDS011;29629;52.532;13.352;2023-04-03T09:04:30;89.88;;;63.25;;
41261;SDS011;29629;52.532;13.352;2023-04-03T09:07:02;88.85;;;65.07;;
41261;SDS011;29629;52.532;13.352;2023-04-03T09:09:35;94.60;;;65.03;;
41261;SDS011;29629;52.532;13.352;2023-04-03T09:12:09;92.82;;;64.03;;
41261;SDS011;29629;52.532;13.352;2023-04-03T09:14:46;79.82;;;60.40;;
41261;SDS011;29629;52.532;13.352;2023-04-03T09:17:26;59.28;;;49.17;;
41261;SDS011;29629;52.532;13.352;2023-04-03T09:20:04;52.10;;;44.40;;
41261;SDS011;29629;52.532;13.352;2023-04-03T09:22:41;52.65;;;43.75;;
41261;SDS011;29629;52.532;13.352;2023-04-03T09:25:10;59.63;;;48.38;;
41261;SDS011;29629;52.532;13.352;2023-04-03T09:27:40;43.28;;;38.50;;
41261;SDS011;29629;52.532;13.352;2023-04-03T09:30:11;46.72;;;40.50;;
41261;SDS011;29629;52.532;13.352;2023-04-03T09:32:41;61.72;;;52.05;;
41261;SDS011;29629;52.532;13.352;2023-04-03T09:35:15;83.82;;;68.07;;
41261;SDS011;29629;52.532;13.352;2023-04-03T09:37:48;95.47;;;71.05;;
41261;SDS011;29629;52.532;13.352;2023-04-03T09:40:29;100.15;;;71.38;;
41261;SDS011;29629;52.532;13.352;2023-04-03T09:42:59;98.85;;;70.60;;
41261;SDS011;29629;52.532;13.352;2023-04-03T09:45:29;102.57;;;70.45;;
41261;SDS011;29629;52.532;13.352;2023-04-03T09:48:05;97.80;;;68.75;;
41261;SDS011;29629;52.532;13.352;2023-04-03T09:50:34;95.05;;;68.65;;
41261;SDS011;29629;52.532;13.352;2023-04-03T09:53:04;66.63;;;54.15;;
41261;SDS011;29629;52.532;13.352;2023-04-03T09:55:33;43.83;;;36.60;;
41261;SDS011;29629;52.532;13.352;2023-04-03T09:58:22;41.20;;;37.72;;
41261;SDS011;29629;52.532;13.352;2023-04-03T10:00:55;41.95;;;37.38;;
41261;SDS011;29629;52.532;13.352;2023-04-03T10:03:24;48.08;;;42.70;;
41261;SDS011;29629;52.532;13.352;2023-04-03T10:05:54;64.72;;;51.60;;
41261;SDS011;29629;52.532;13.352;2023-04-03T10:08:23;73.00;;;60.20;;
41261;SDS011;29629;52.532;13.352;2023-04-03T10:11:06;83.82;;;64.22;;
41261;SDS011;29629;52.532;13.352;2023-04-03T10:13:49;80.57;;;63.35;;
41261;SDS011;29629;52.532;13.352;2023-04-03T10:16:18;101.05;;;67.30;;
41261;SDS011;29629;52.532;13.352;2023-04-03T10:18:49;96.35;;;68.63;;
41261;SDS011;29629;52.532;13.352;2023-04-03T10:21:34;98.70;;;68.72;;
41261;SDS011;29629;52.532;13.352;2023-04-03T10:24:10;98.75;;;67.72;;
41261;SDS011;29629;52.532;13.352;2023-04-03T10:26:43;97.30;;;66.50;;
41261;SDS011;29629;52.532;13.352;2023-04-03T10:32:10;94.55;;;66.03;;
41261;SDS011;29629;52.532;13.352;2023-04-03T10:34:49;92.25;;;65.80;;
41261;SDS011;29629;52.532;13.352;2023-04-03T10:37:21;94.28;;;66.78;;
41261;SDS011;29629;52.532;13.352;2023-04-03T10:39:52;89.30;;;65.10;;
41261;SDS011;29629;52.532;13.352;2023-04-03T10:42:26;81.78;;;62.08;;
41261;SDS011;29629;52.532;13.352;2023-04-03T10:45:00;72.18;;;59.38;;
41261;SDS011;29629;52.532;13.352;2023-04-03T10:47:36;90.18;;;65.32;;
41261;SDS011;29629;52.532;13.352;2023-04-03T10:50:15;93.03;;;66.60;;
41261;SDS011;29629;52.532;13.352;2023-04-03T10:52:55;95.35;;;67.30;;
41261;SDS011;29629;52.532;13.352;2023-04-03T10:55:30;95.30;;;66.55;;
41261;SDS011;29629;52.532;13.352;2023-04-03T10:58:02;97.95;;;66.63;;
41261;SDS011;29629;52.532;13.352;2023-04-03T11:00:32;93.95;;;65.75;;
41261;SDS011;29629;52.532;13.352;2023-04-03T11:03:05;100.03;;;68.03;;
41261;SDS011;29629;52.532;13.352;2023-04-03T11:05:36;95.07;;;65.50;;
41261;SDS011;29629;52.532;13.352;2023-04-03T11:08:08;99.20;;;67.15;;
41261;SDS011;29629;52.532;13.352;2023-04-03T11:10:44;100.72;;;67.10;;
41261;SDS011;29629;52.532;13.352;2023-04-03T11:13:15;96.50;;;66.38;;
41261;SDS011;29629;52.532;13.352;2023-04-03T11:15:44;95.00;;;65.68;;
41261;SDS011;29629;52.532;13.352;2023-04-03T11:18:14;99.47;;;66.63;;
41261;SDS011;29629;52.532;13.352;2023-04-03T11:20:53;98.63;;;66.05;;
41261;SDS011;29629;52.532;13.352;2023-04-03T11:23:29;101.93;;;66.85;;
41261;SDS011;29629;52.532;13.352;2023-04-03T11:26:01;105.10;;;68.63;;
41261;SDS011;29629;52.532;13.352;2023-04-03T11:28:35;101.15;;;66.68;;
41261;SDS011;29629;52.532;13.352;2023-04-03T11:31:06;106.28;;;68.38;;
41261;SDS011;29629;52.532;13.352;2023-04-03T11:33:57;97.70;;;66.43;;
41261;SDS011;29629;52.532;13.352;2023-04-03T11:36:31;101.38;;;66.88;;
41261;SDS011;29629;52.532;13.352;2023-04-03T11:39:07;102.60;;;67.18;;
41261;SDS011;29629;52.532;13.352;2023-04-03T11:41:43;99.80;;;65.38;;
41261;SDS011;29629;52.532;13.352;2023-04-03T11:44:25;99.18;;;66.03;;
41261;SDS011;29629;52.532;13.352;2023-04-03T11:47:01;101.65;;;66.97;;
41261;SDS011;29629;52.532;13.352;2023-04-03T11:58:18;100.72;;;66.10;;
41261;SDS011;29629;52.532;13.352;2023-04-03T12:00:50;96.10;;;64.80;;
41261;SDS011;29629;52.532;13.352;2023-04-03T12:12:40;103.45;;;67.18;;
41261;SDS011;29629;52.532;13.352;2023-04-03T12:24:34;93.75;;;63.97;;
41261;SDS011;29629;52.532;13.352;2023-04-03T12:27:24;96.70;;;65.07;;
41261;SDS011;29629;52.532;13.352;2023-04-03T12:29:59;98.32;;;65.57;;
41261;SDS011;29629;52.532;13.352;2023-04-03T12:35:43;93.30;;;63.97;;
41261;SDS011;29629;52.532;13.352;2023-04-03T12:38:21;97.43;;;65.30;;
41261;SDS011;29629;52.532;13.352;2023-04-03T12:41:14;97.35;;;65.18;;
41261;SDS011;29629;52.532;13.352;2023-04-03T12:43:58;99.72;;;65.68;;
41261;SDS011;29629;52.532;13.352;2023-04-03T12:46:34;102.35;;;67.18;;
41261;SDS011;29629;52.532;13.352;2023-04-03T12:49:13;100.07;;;66.43;;
41261;SDS011;29629;52.532;13.352;2023-04-03T12:51:50;91.97;;;64.07;;
41261;SDS011;29629;52.532;13.352;2023-04-03T12:54:19;91.10;;;63.97;;
41261;SDS011;29629;52.532;13.352;2023-04-03T12:56:51;91.80;;;64.57;;
41261;SDS011;29629;52.532;13.352;2023-04-03T12:59:19;91.45;;;64.68;;
41261;SDS011;29629;52.532;13.352;2023-04-03T13:01:52;94.28;;;64.90;;
41261;SDS011;29629;52.532;13.352;2023-04-03T13:04:20;96.95;;;66.30;;
41261;SDS011;29629;52.532;13.352;2023-04-03T13:06:48;96.07;;;65.68;;
41261;SDS011;29629;52.532;13.352;2023-04-03T13:09:19;97.60;;;65.88;;
41261;SDS011;29629;52.532;13.352;2023-04-03T13:11:48;97.18;;;65.60;;
41261;SDS011;29629;52.532;13.352;2023-04-03T13:14:19;99.80;;;66.07;;
41261;SDS011;29629;52.532;13.352;2023-04-03T13:16:54;95.95;;;64.72;;
41261;SDS011;29629;52.532;13.352;2023-04-03T13:19:22;98.20;;;65.70;;
41261;SDS011;29629;52.532;13.352;2023-04-03T13:21:51;97.25;;;65.25;;
41261;SDS011;29629;52.532;13.352;2023-04-03T13:24:23;99.28;;;66.22;;
41261;SDS011;29629;52.532;13.352;2023-04-03T13:26:52;100.65;;;67.07;;
41261;SDS011;29629;52.532;13.352;2023-04-03T13:29:21;99.03;;;65.95;;
41261;SDS011;29629;52.532;13.352;2023-04-03T13:31:52;95.68;;;66.05;;
41261;SDS011;29629;52.532;13.352;2023-04-03T13:34:21;91.88;;;64.97;;
41261;SDS011;29629;52.532;13.352;2023-04-03T13:36:58;106.60;;;66.80;;
41261;SDS011;29629;52.532;13.352;2023-04-03T13:39:28;101.25;;;67.97;;
41261;SDS011;29629;52.532;13.352;2023-04-03T13:42:14;97.60;;;66.85;;
41261;SDS011;29629;52.532;13.352;2023-04-03T13:44:42;96.60;;;67.07;;
41261;SDS011;29629;52.532;13.352;2023-04-03T13:47:17;98.75;;;67.30;;
41261;SDS011;29629;52.532;13.352;2023-04-03T13:49:46;96.70;;;66.20;;
41261;SDS011;29629;52.532;13.352;2023-04-03T13:52:26;100.90;;;67.88;;
41261;SDS011;29629;52.532;13.352;2023-04-03T13:54:57;101.90;;;68.60;;
41261;SDS011;29629;52.532;13.352;2023-04-03T13:57:27;103.00;;;68.55;;
41261;SDS011;29629;52.532;13.352;2023-04-03T13:59:54;97.97;;;66.82;;
41261;SDS011;29629;52.532;13.352;2023-04-03T14:02:28;101.93;;;69.38;;
41261;SDS011;29629;52.532;13.352;2023-04-03T14:04:58;95.55;;;65.97;;
41261;SDS011;29629;52.532;13.352;2023-04-03T14:07:27;95.93;;;66.05;;
41261;SDS011;29629;52.532;13.352;2023-04-03T14:09:56;96.28;;;66.32;;
41261;SDS011;29629;52.532;13.352;2023-04-03T14:12:24;104.82;;;69.35;;
41261;SDS011;29629;52.532;13.352;2023-04-03T14:14:55;96.13;;;65.43;;
41261;SDS011;29629;52.532;13.352;2023-04-03T14:17:23;97.68;;;66.50;;
41261;SDS011;29629;52.532;13.352;2023-04-03T14:19:51;89.95;;;64.88;;
41261;SDS011;29629;52.532;13.352;2023-04-03T14:22:21;97.70;;;66.65;;
41261;SDS011;29629;52.532;13.352;2023-04-03T14:24:49;96.97;;;65.60;;
41261;SDS011;29629;52.532;13.352;2023-04-03T14:27:18;96.70;;;66.18;;
41261;SDS011;29629;52.532;13.352;2023-04-03T14:29:48;96.70;;;65.20;;
41261;SDS011;29629;52.532;13.352;2023-04-03T14:32:16;100.45;;;67.78;;
41261;SDS011;29629;52.532;13.352;2023-04-03T14:34:44;91.18;;;64.10;;
41261;SDS011;29629;52.532;13.352;2023-04-03T14:37:11;96.55;;;65.60;;
41261;SDS011;29629;52.532;13.352;2023-04-03T14:39:40;97.35;;;66.70;;
41261;SDS011;29629;52.532;13.352;2023-04-03T14:42:11;102.38;;;68.47;;
41261;SDS011;29629;52.532;13.352;2023-04-03T14:44:39;99.13;;;67.38;;
41261;SDS011;29629;52.532;13.352;2023-04-03T14:47:10;102.50;;;67.30;;
41261;SDS011;29629;52.532;13.352;2023-04-03T14:49:38;94.75;;;65.80;;
41261;SDS011;29629;52.532;13.352;2023-04-03T14:52:05;95.47;;;66.35;;
41261;SDS011;29629;52.532;13.352;2023-04-03T14:54:32;104.38;;;69.28;;
41261;SDS011;29629;52.532;13.352;2023-04-03T14:56:59;92.03;;;64.90;;
41261;SDS011;29629;52.532;13.352;2023-04-03T14:59:27;99.88;;;67.72;;